sensor_id;sensor_type;location;lat;lon;timestamp;pressure;altitude;pressure_sealevel;temperature;humidity
11198;BME280;5655;48.744;9.162;2023-05-22T00:00:06;95766.97;;;19.16;100.00
11198;BME280;5655;48.744;9.162;2023-05-22T00:02:33;95774.03;;;19.26;100.00
11198;BME280;5655;48.744;9.162;2023-05-22T00:05:03;95772.31;;;19.32;100.00
11198;BME280;5655;48.744;9.162;2023-05-22T00:07:29;95775.34;;;19.34;100.00
11198;BME280;5655;48.744;9.162;2023-05-22T00:09:54;95765.47;;;19.15;100.00
11198;BME280;5655;48.744;9.162;2023-05-22T00:12:20;95765.00;;;19.17;100.00
11198;BME280;5655;48.744;9.162;2023-05-22T00:14:45;95756.44;;;19.18;100.00
11198;BME280;5655;48.744;9.162;2023-05-22T00:17:11;95757.22;;;19.19;100.00
11198;BME280;5655;48.744;9.162;2023-05-22T00:19:41;95757.75;;;19.14;100.00
11198;BME280;5655;48.744;9.162;2023-05-22T00:22:08;95761.78;;;19.34;100.00
11198;BME280;5655;48.744;9.162;2023-05-22T00:24:33;95760.59;;;19.35;100.00
11198;BME280;5655;48.744;9.162;2023-05-22T00:26:59;95756.47;;;19.43;100.00
11198;BME280;5655;48.744;9.162;2023-05-22T00:29:24;95760.19;;;19.50;100.00
11198;BME280;5655;48.744;9.162;2023-05-22T00:31:49;95757.13;;;19.47;100.00
11198;BME280;5655;48.744;9.162;2023-05-22T00:34:15;95759.09;;;19.47;100.00
11198;BME280;5655;48.744;9.162;2023-05-22T00:36:40;95758.94;;;19.25;100.00
11198;BME280;5655;48.744;9.162;2023-05-22T00:39:05;95752.44;;;19.10;100.00
11198;BME280;5655;48.744;9.162;2023-05-22T00:41:31;95736.03;;;19.01;100.00
11198;BME280;5655;48.744;9.162;2023-05-22T00:43:59;95745.88;;;18.95;100.00
11198;BME280;5655;48.744;9.162;2023-05-22T00:46:25;95745.09;;;18.82;100.00
11198;BME280;5655;48.744;9.162;2023-05-22T00:48:51;95746.22;;;18.84;100.00
11198;BME280;5655;48.744;9.162;2023-05-22T00:51:20;95750.22;;;18.92;100.00
11198;BME280;5655;48.744;9.162;2023-05-22T00:53:46;95745.31;;;18.75;100.00
11198;BME280;5655;48.744;9.162;2023-05-22T00:56:12;95735.00;;;18.70;100.00
11198;BME280;5655;48.744;9.162;2023-05-22T00:58:39;95744.97;;;18.73;100.00
11198;BME280;5655;48.744;9.162;2023-05-22T01:01:05;95751.75;;;18.81;100.00
11198;BME280;5655;48.744;9.162;2023-05-22T01:03:34;95749.75;;;18.81;100.00
11198;BME280;5655;48.744;9.162;2023-05-22T01:06:02;95743.00;;;18.61;100.00
11198;BME280;5655;48.744;9.162;2023-05-22T01:08:27;95738.91;;;18.40;100.00
11198;BME280;5655;48.744;9.162;2023-05-22T01:11:02;95744.97;;;18.73;100.00
11198;BME280;5655;48.744;9.162;2023-05-22T01:13:38;95748.63;;;18.53;100.00
11198;BME280;5655;48.744;9.162;2023-05-22T01:16:16;95739.66;;;18.40;100.00
11198;BME280;5655;48.744;9.162;2023-05-22T01:18:53;95743.91;;;18.41;100.00
11198;BME280;5655;48.744;9.162;2023-05-22T01:21:38;95744.22;;;18.43;100.00
11198;BME280;5655;48.744;9.162;2023-05-22T01:27:32;95745.06;;;18.40;100.00
11198;BME280;5655;48.744;9.162;2023-05-22T01:32:31;95753.75;;;18.19;100.00
11198;BME280;5655;48.744;9.162;2023-05-22T01:35:00;95750.91;;;18.10;100.00
11198;BME280;5655;48.744;9.162;2023-05-22T01:37:26;95751.09;;;18.03;100.00
11198;BME280;5655;48.744;9.162;2023-05-22T01:39:53;95755.81;;;18.15;100.00
11198;BME280;5655;48.744;9.162;2023-05-22T01:42:20;95759.06;;;17.94;100.00
11198;BME280;5655;48.744;9.162;2023-05-22T01:44:47;95757.03;;;17.98;100.00
11198;BME280;5655;48.744;9.162;2023-05-22T01:47:12;95752.38;;;17.82;100.00
11198;BME280;5655;48.744;9.162;2023-05-22T01:49:39;95758.72;;;17.92;100.00
11198;BME280;5655;48.744;9.162;2023-05-22T01:54:41;95757.34;;;18.16;100.00
11198;BME280;5655;48.744;9.162;2023-05-22T01:57:38;95753.25;;;18.08;100.00
11198;BME280;5655;48.744;9.162;2023-05-22T02:00:11;95749.94;;;17.72;100.00
11198;BME280;5655;48.744;9.162;2023-05-22T02:02:41;95746.97;;;17.66;100.00
11198;BME280;5655;48.744;9.162;2023-05-22T02:05:09;95749.75;;;17.79;100.00
11198;BME280;5655;48.744;9.162;2023-05-22T02:07:40;95751.19;;;17.83;100.00
11198;BME280;5655;48.744;9.162;2023-05-22T02:10:08;95756.34;;;17.78;100.00
11198;BME280;5655;48.744;9.162;2023-05-22T02:12:35;95746.00;;;17.56;100.00
11198;BME280;5655;48.744;9.162;2023-05-22T02:15:00;95754.13;;;17.56;100.00
11198;BME280;5655;48.744;9.162;2023-05-22T02:17:26;95747.53;;;17.57;100.00
11198;BME280;5655;48.744;9.162;2023-05-22T02:19:51;95749.22;;;17.51;100.00
11198;BME280;5655;48.744;9.162;2023-05-22T02:22:17;95749.72;;;17.46;100.00
11198;BME280;5655;48.744;9.162;2023-05-22T02:24:45;95761.25;;;17.83;100.00
11198;BME280;5655;48.744;9.162;2023-05-22T02:27:11;95746.28;;;17.62;100.00
11198;BME280;5655;48.744;9.162;2023-05-22T02:29:37;95733.72;;;17.52;100.00
11198;BME280;5655;48.744;9.162;2023-05-22T02:32:03;95744.34;;;17.62;100.00
11198;BME280;5655;48.744;9.162;2023-05-22T02:34:28;95742.66;;;17.68;100.00
11198;BME280;5655;48.744;9.162;2023-05-22T02:36:56;95750.25;;;17.90;100.00
11198;BME280;5655;48.744;9.162;2023-05-22T02:39:21;95746.03;;;17.73;100.00
11198;BME280;5655;48.744;9.162;2023-05-22T02:41:47;95745.44;;;17.81;100.00
11198;BME280;5655;48.744;9.162;2023-05-22T02:44:12;95739.00;;;17.75;100.00
11198;BME280;5655;48.744;9.162;2023-05-22T02:46:37;95748.47;;;17.83;100.00
11198;BME280;5655;48.744;9.162;2023-05-22T02:49:03;95739.09;;;17.88;100.00
11198;BME280;5655;48.744;9.162;2023-05-22T02:51:28;95736.22;;;17.79;100.00
11198;BME280;5655;48.744;9.162;2023-05-22T02:53:53;95742.31;;;17.83;100.00
11198;BME280;5655;48.744;9.162;2023-05-22T02:56:19;95741.88;;;17.84;100.00
11198;BME280;5655;48.744;9.162;2023-05-22T02:58:45;95741.63;;;17.79;100.00
11198;BME280;5655;48.744;9.162;2023-05-22T03:01:10;95739.84;;;17.88;100.00
11198;BME280;5655;48.744;9.162;2023-05-22T03:03:35;95746.59;;;17.96;100.00
11198;BME280;5655;48.744;9.162;2023-05-22T03:06:01;95730.56;;;17.89;100.00
11198;BME280;5655;48.744;9.162;2023-05-22T03:08:28;95738.38;;;18.00;100.00
11198;BME280;5655;48.744;9.162;2023-05-22T03:10:55;95739.22;;;18.13;100.00
11198;BME280;5655;48.744;9.162;2023-05-22T03:13:21;95747.03;;;18.11;100.00
11198;BME280;5655;48.744;9.162;2023-05-22T03:15:46;95754.53;;;18.20;100.00
11198;BME280;5655;48.744;9.162;2023-05-22T03:18:11;95759.19;;;18.19;100.00
11198;BME280;5655;48.744;9.162;2023-05-22T03:20:37;95762.22;;;18.21;100.00
11198;BME280;5655;48.744;9.162;2023-05-22T03:23:03;95764.25;;;18.33;100.00
11198;BME280;5655;48.744;9.162;2023-05-22T03:25:29;95753.47;;;18.01;100.00
11198;BME280;5655;48.744;9.162;2023-05-22T03:27:54;95758.13;;;17.84;100.00
11198;BME280;5655;48.744;9.162;2023-05-22T03:30:19;95758.81;;;17.88;100.00
11198;BME280;5655;48.744;9.162;2023-05-22T03:32:45;95764.56;;;17.90;100.00
11198;BME280;5655;48.744;9.162;2023-05-22T03:35:10;95763.53;;;17.84;100.00
11198;BME280;5655;48.744;9.162;2023-05-22T03:37:37;95769.56;;;17.76;100.00
11198;BME280;5655;48.744;9.162;2023-05-22T03:40:02;95765.81;;;17.69;100.00
11198;BME280;5655;48.744;9.162;2023-05-22T03:42:28;95771.38;;;17.95;100.00
11198;BME280;5655;48.744;9.162;2023-05-22T03:44:54;95774.09;;;17.95;100.00
11198;BME280;5655;48.744;9.162;2023-05-22T03:47:19;95774.28;;;17.88;100.00
11198;BME280;5655;48.744;9.162;2023-05-22T03:49:44;95765.84;;;17.86;100.00
11198;BME280;5655;48.744;9.162;2023-05-22T03:52:10;95765.75;;;17.73;100.00
11198;BME280;5655;48.744;9.162;2023-05-22T03:54:35;95759.72;;;17.65;100.00
11198;BME280;5655;48.744;9.162;2023-05-22T03:57:01;95763.56;;;17.68;100.00
11198;BME280;5655;48.744;9.162;2023-05-22T03:59:26;95764.94;;;17.56;100.00
11198;BME280;5655;48.744;9.162;2023-05-22T04:01:51;95762.78;;;17.67;100.00
11198;BME280;5655;48.744;9.162;2023-05-22T04:04:17;95753.97;;;17.47;100.00
11198;BME280;5655;48.744;9.162;2023-05-22T04:06:42;95775.13;;;17.85;100.00
11198;BME280;5655;48.744;9.162;2023-05-22T04:09:11;95770.31;;;17.76;100.00
11198;BME280;5655;48.744;9.162;2023-05-22T04:11:37;95768.34;;;17.60;100.00
11198;BME280;5655;48.744;9.162;2023-05-22T04:14:07;95773.50;;;17.55;100.00
11198;BME280;5655;48.744;9.162;2023-05-22T04:16:32;95770.25;;;17.28;100.00
11198;BME280;5655;48.744;9.162;2023-05-22T04:18:58;95765.28;;;17.42;100.00
11198;BME280;5655;48.744;9.162;2023-05-22T04:21:26;95775.22;;;17.65;100.00
11198;BME280;5655;48.744;9.162;2023-05-22T04:23:51;95769.84;;;17.29;100.00
11198;BME280;5655;48.744;9.162;2023-05-22T04:26:16;95771.53;;;17.39;100.00
11198;BME280;5655;48.744;9.162;2023-05-22T04:28:42;95783.53;;;17.38;100.00
11198;BME280;5655;48.744;9.162;2023-05-22T04:31:12;95776.97;;;17.55;100.00
11198;BME280;5655;48.744;9.162;2023-05-22T04:33:38;95783.22;;;17.52;100.00
11198;BME280;5655;48.744;9.162;2023-05-22T04:36:04;95780.28;;;17.63;100.00
11198;BME280;5655;48.744;9.162;2023-05-22T04:38:31;95779.41;;;17.50;100.00
11198;BME280;5655;48.744;9.162;2023-05-22T04:41:03;95789.84;;;17.67;100.00
11198;BME280;5655;48.744;9.162;2023-05-22T04:43:29;95779.50;;;17.46;100.00
11198;BME280;5655;48.744;9.162;2023-05-22T04:45:56;95762.38;;;17.17;100.00
11198;BME280;5655;48.744;9.162;2023-05-22T04:48:21;95765.88;;;17.34;100.00
11198;BME280;5655;48.744;9.162;2023-05-22T04:50:48;95775.06;;;17.36;100.00
11198;BME280;5655;48.744;9.162;2023-05-22T04:53:14;95770.75;;;17.39;100.00
11198;BME280;5655;48.744;9.162;2023-05-22T04:55:39;95778.34;;;17.63;100.00
11198;BME280;5655;48.744;9.162;2023-05-22T04:58:05;95788.16;;;17.74;100.00
11198;BME280;5655;48.744;9.162;2023-05-22T05:00:30;95786.88;;;17.78;100.00
11198;BME280;5655;48.744;9.162;2023-05-22T05:02:56;95794.84;;;17.85;100.00
11198;BME280;5655;48.744;9.162;2023-05-22T05:05:21;95796.03;;;18.00;100.00
11198;BME280;5655;48.744;9.162;2023-05-22T05:07:48;95799.81;;;18.19;100.00
11198;BME280;5655;48.744;9.162;2023-05-22T05:10:14;95805.56;;;18.37;100.00
11198;BME280;5655;48.744;9.162;2023-05-22T05:12:39;95800.94;;;18.50;100.00
11198;BME280;5655;48.744;9.162;2023-05-22T05:15:05;95799.91;;;18.61;100.00
11198;BME280;5655;48.744;9.162;2023-05-22T05:17:31;95808.84;;;18.74;100.00
11198;BME280;5655;48.744;9.162;2023-05-22T05:19:56;95806.63;;;18.85;100.00
11198;BME280;5655;48.744;9.162;2023-05-22T05:22:21;95815.31;;;18.92;100.00
11198;BME280;5655;48.744;9.162;2023-05-22T05:24:47;95814.22;;;18.90;100.00
11198;BME280;5655;48.744;9.162;2023-05-22T05:27:12;95818.72;;;19.09;100.00
11198;BME280;5655;48.744;9.162;2023-05-22T05:29:38;95826.66;;;19.16;100.00
11198;BME280;5655;48.744;9.162;2023-05-22T05:32:03;95828.97;;;19.30;100.00
11198;BME280;5655;48.744;9.162;2023-05-22T05:34:29;95824.19;;;19.34;100.00
11198;BME280;5655;48.744;9.162;2023-05-22T05:36:54;95812.94;;;19.48;100.00
11198;BME280;5655;48.744;9.162;2023-05-22T05:39:21;95819.56;;;19.47;100.00
11198;BME280;5655;48.744;9.162;2023-05-22T05:41:46;95824.00;;;19.41;100.00
11198;BME280;5655;48.744;9.162;2023-05-22T05:44:12;95824.84;;;19.38;100.00
11198;BME280;5655;48.744;9.162;2023-05-22T05:46:37;95833.78;;;19.52;100.00
11198;BME280;5655;48.744;9.162;2023-05-22T05:49:06;95837.00;;;19.34;100.00
11198;BME280;5655;48.744;9.162;2023-05-22T05:51:36;95840.09;;;19.48;100.00
11198;BME280;5655;48.744;9.162;2023-05-22T05:54:01;95823.59;;;19.56;100.00
11198;BME280;5655;48.744;9.162;2023-05-22T05:56:26;95831.72;;;19.43;100.00
11198;BME280;5655;48.744;9.162;2023-05-22T05:58:52;95834.78;;;19.70;100.00
11198;BME280;5655;48.744;9.162;2023-05-22T06:01:17;95834.97;;;19.51;100.00
11198;BME280;5655;48.744;9.162;2023-05-22T06:03:43;95840.22;;;19.83;100.00
11198;BME280;5655;48.744;9.162;2023-05-22T06:06:08;95845.31;;;20.06;100.00
11198;BME280;5655;48.744;9.162;2023-05-22T06:08:34;95845.72;;;20.17;100.00
11198;BME280;5655;48.744;9.162;2023-05-22T06:11:00;95842.66;;;20.15;100.00
11198;BME280;5655;48.744;9.162;2023-05-22T06:13:25;95850.28;;;20.20;100.00
11198;BME280;5655;48.744;9.162;2023-05-22T06:15:51;95833.38;;;19.78;100.00
11198;BME280;5655;48.744;9.162;2023-05-22T06:18:16;95833.69;;;19.68;100.00
11198;BME280;5655;48.744;9.162;2023-05-22T06:20:42;95839.56;;;19.91;100.00
11198;BME280;5655;48.744;9.162;2023-05-22T06:23:07;95841.28;;;19.85;100.00
11198;BME280;5655;48.744;9.162;2023-05-22T06:25:32;95841.50;;;20.04;100.00
11198;BME280;5655;48.744;9.162;2023-05-22T06:27:59;95847.03;;;20.00;100.00
11198;BME280;5655;48.744;9.162;2023-05-22T06:30:25;95854.41;;;20.12;100.00
11198;BME280;5655;48.744;9.162;2023-05-22T06:32:51;95856.81;;;20.10;100.00
11198;BME280;5655;48.744;9.162;2023-05-22T06:35:16;95853.75;;;20.21;100.00
11198;BME280;5655;48.744;9.162;2023-05-22T06:37:42;95863.44;;;20.22;100.00
11198;BME280;5655;48.744;9.162;2023-05-22T06:40:08;95851.50;;;20.32;100.00
11198;BME280;5655;48.744;9.162;2023-05-22T06:42:34;95859.19;;;20.33;100.00
11198;BME280;5655;48.744;9.162;2023-05-22T06:44:59;95861.88;;;20.46;100.00
11198;BME280;5655;48.744;9.162;2023-05-22T06:47:25;95854.69;;;20.52;100.00
11198;BME280;5655;48.744;9.162;2023-05-22T06:49:50;95863.97;;;20.76;100.00
11198;BME280;5655;48.744;9.162;2023-05-22T06:52:15;95863.25;;;20.63;100.00
11198;BME280;5655;48.744;9.162;2023-05-22T06:54:41;95871.03;;;21.08;100.00
11198;BME280;5655;48.744;9.162;2023-05-22T06:57:07;95864.25;;;20.91;100.00
11198;BME280;5655;48.744;9.162;2023-05-22T06:59:33;95868.06;;;20.81;100.00
11198;BME280;5655;48.744;9.162;2023-05-22T07:01:58;95868.88;;;21.03;100.00
11198;BME280;5655;48.744;9.162;2023-05-22T07:04:23;95882.75;;;21.18;100.00
11198;BME280;5655;48.744;9.162;2023-05-22T07:06:49;95876.16;;;21.28;100.00
11198;BME280;5655;48.744;9.162;2023-05-22T07:09:14;95881.44;;;21.22;100.00
11198;BME280;5655;48.744;9.162;2023-05-22T07:11:40;95878.97;;;21.68;100.00
11198;BME280;5655;48.744;9.162;2023-05-22T07:14:07;95878.38;;;21.73;100.00
11198;BME280;5655;48.744;9.162;2023-05-22T07:16:32;95882.31;;;21.72;100.00
11198;BME280;5655;48.744;9.162;2023-05-22T07:18:58;95877.31;;;22.01;100.00
11198;BME280;5655;48.744;9.162;2023-05-22T07:21:23;95885.88;;;21.91;100.00
11198;BME280;5655;48.744;9.162;2023-05-22T07:23:50;95881.44;;;22.15;100.00
11198;BME280;5655;48.744;9.162;2023-05-22T07:26:15;95877.59;;;21.94;100.00
11198;BME280;5655;48.744;9.162;2023-05-22T07:28:40;95878.19;;;22.38;100.00
11198;BME280;5655;48.744;9.162;2023-05-22T07:31:06;95885.13;;;22.39;100.00
11198;BME280;5655;48.744;9.162;2023-05-22T07:33:31;95882.34;;;22.70;100.00
11198;BME280;5655;48.744;9.162;2023-05-22T07:35:56;95884.09;;;22.46;100.00
11198;BME280;5655;48.744;9.162;2023-05-22T07:38:22;95876.56;;;22.59;100.00
11198;BME280;5655;48.744;9.162;2023-05-22T07:40:47;95881.59;;;22.70;100.00
11198;BME280;5655;48.744;9.162;2023-05-22T07:43:12;95889.44;;;22.68;100.00
11198;BME280;5655;48.744;9.162;2023-05-22T07:45:40;95878.94;;;22.39;100.00
11198;BME280;5655;48.744;9.162;2023-05-22T07:48:05;95884.63;;;22.81;100.00
11198;BME280;5655;48.744;9.162;2023-05-22T07:50:31;95887.97;;;22.85;100.00
11198;BME280;5655;48.744;9.162;2023-05-22T07:52:57;95888.13;;;22.81;100.00
11198;BME280;5655;48.744;9.162;2023-05-22T07:55:22;95891.00;;;22.96;100.00
11198;BME280;5655;48.744;9.162;2023-05-22T07:57:48;95883.72;;;22.84;100.00
11198;BME280;5655;48.744;9.162;2023-05-22T08:00:13;95890.53;;;22.79;100.00
11198;BME280;5655;48.744;9.162;2023-05-22T08:02:39;95890.53;;;22.70;100.00
11198;BME280;5655;48.744;9.162;2023-05-22T08:05:06;95882.81;;;22.78;100.00
11198;BME280;5655;48.744;9.162;2023-05-22T08:07:31;95880.81;;;22.60;100.00
11198;BME280;5655;48.744;9.162;2023-05-22T08:09:57;95885.84;;;22.80;100.00
11198;BME280;5655;48.744;9.162;2023-05-22T08:12:22;95891.75;;;22.87;100.00
11198;BME280;5655;48.744;9.162;2023-05-22T08:14:48;95891.13;;;22.74;100.00
11198;BME280;5655;48.744;9.162;2023-05-22T08:17:13;95894.78;;;22.71;100.00
11198;BME280;5655;48.744;9.162;2023-05-22T08:19:38;95891.16;;;22.83;100.00
11198;BME280;5655;48.744;9.162;2023-05-22T08:22:04;95884.97;;;22.25;100.00
11198;BME280;5655;48.744;9.162;2023-05-22T08:24:29;95882.00;;;22.59;100.00
11198;BME280;5655;48.744;9.162;2023-05-22T08:26:56;95879.72;;;22.57;100.00
11198;BME280;5655;48.744;9.162;2023-05-22T08:29:25;95893.59;;;22.81;100.00
11198;BME280;5655;48.744;9.162;2023-05-22T08:31:50;95889.03;;;22.69;100.00
11198;BME280;5655;48.744;9.162;2023-05-22T08:34:16;95891.25;;;22.43;100.00
11198;BME280;5655;48.744;9.162;2023-05-22T08:36:41;95889.41;;;22.49;100.00
11198;BME280;5655;48.744;9.162;2023-05-22T08:39:08;95893.50;;;22.54;100.00
11198;BME280;5655;48.744;9.162;2023-05-22T08:41:34;95888.41;;;22.83;100.00
11198;BME280;5655;48.744;9.162;2023-05-22T08:43:59;95891.75;;;22.78;100.00
11198;BME280;5655;48.744;9.162;2023-05-22T08:46:24;95888.75;;;22.85;100.00
11198;BME280;5655;48.744;9.162;2023-05-22T08:48:50;95890.25;;;22.86;100.00
11198;BME280;5655;48.744;9.162;2023-05-22T08:51:18;95885.41;;;22.99;100.00
11198;BME280;5655;48.744;9.162;2023-05-22T08:53:44;95889.34;;;23.17;100.00
11198;BME280;5655;48.744;9.162;2023-05-22T08:56:10;95890.41;;;23.01;100.00
11198;BME280;5655;48.744;9.162;2023-05-22T08:58:36;95892.22;;;23.13;100.00
11198;BME280;5655;48.744;9.162;2023-05-22T09:01:03;95899.63;;;23.13;100.00
11198;BME280;5655;48.744;9.162;2023-05-22T09:03:29;95892.03;;;23.53;100.00
11198;BME280;5655;48.744;9.162;2023-05-22T09:05:59;95896.56;;;23.56;100.00
11198;BME280;5655;48.744;9.162;2023-05-22T09:08:25;95890.66;;;24.00;100.00
11198;BME280;5655;48.744;9.162;2023-05-22T09:10:51;95889.50;;;23.91;100.00
11198;BME280;5655;48.744;9.162;2023-05-22T09:13:24;95887.16;;;24.08;100.00
11198;BME280;5655;48.744;9.162;2023-05-22T09:15:50;95886.59;;;24.37;100.00
11198;BME280;5655;48.744;9.162;2023-05-22T09:18:15;95886.59;;;24.84;100.00
11198;BME280;5655;48.744;9.162;2023-05-22T09:20:40;95879.06;;;24.70;100.00
11198;BME280;5655;48.744;9.162;2023-05-22T09:23:12;95875.16;;;25.10;100.00
11198;BME280;5655;48.744;9.162;2023-05-22T09:25:40;95885.19;;;25.42;100.00
11198;BME280;5655;48.744;9.162;2023-05-22T09:28:07;95877.13;;;25.62;100.00
11198;BME280;5655;48.744;9.162;2023-05-22T09:30:35;95880.50;;;25.57;100.00
11198;BME280;5655;48.744;9.162;2023-05-22T09:33:02;95880.38;;;25.52;100.00
11198;BME280;5655;48.744;9.162;2023-05-22T09:35:31;95881.81;;;25.47;100.00
11198;BME280;5655;48.744;9.162;2023-05-22T09:37:57;95877.94;;;25.68;100.00
11198;BME280;5655;48.744;9.162;2023-05-22T09:40:22;95872.63;;;25.50;100.00
11198;BME280;5655;48.744;9.162;2023-05-22T09:42:48;95881.81;;;25.47;100.00
11198;BME280;5655;48.744;9.162;2023-05-22T09:45:13;95874.16;;;25.81;100.00
11198;BME280;5655;48.744;9.162;2023-05-22T09:47:39;95875.03;;;25.57;100.00
11198;BME280;5655;48.744;9.162;2023-05-22T09:50:05;95869.53;;;25.72;100.00
11198;BME280;5655;48.744;9.162;2023-05-22T09:52:35;95870.09;;;25.91;100.00
11198;BME280;5655;48.744;9.162;2023-05-22T09:55:03;95870.63;;;25.95;100.00
11198;BME280;5655;48.744;9.162;2023-05-22T09:57:30;95874.06;;;26.59;100.00
11198;BME280;5655;48.744;9.162;2023-05-22T09:59:58;95870.66;;;26.64;100.00
11198;BME280;5655;48.744;9.162;2023-05-22T10:02:25;95879.16;;;27.07;100.00
11198;BME280;5655;48.744;9.162;2023-05-22T10:04:52;95882.50;;;26.91;100.00
11198;BME280;5655;48.744;9.162;2023-05-22T10:07:21;95876.91;;;26.85;100.00
11198;BME280;5655;48.744;9.162;2023-05-22T10:09:50;95872.72;;;26.70;100.00
11198;BME280;5655;48.744;9.162;2023-05-22T10:12:20;95882.19;;;26.69;100.00
11198;BME280;5655;48.744;9.162;2023-05-22T10:14:46;95880.44;;;26.86;100.00
11198;BME280;5655;48.744;9.162;2023-05-22T10:17:11;95874.75;;;26.54;100.00
11198;BME280;5655;48.744;9.162;2023-05-22T10:19:39;95882.38;;;26.65;100.00
11198;BME280;5655;48.744;9.162;2023-05-22T10:22:05;95886.69;;;26.31;100.00
11198;BME280;5655;48.744;9.162;2023-05-22T10:24:30;95880.66;;;26.68;100.00
11198;BME280;5655;48.744;9.162;2023-05-22T10:26:56;95883.97;;;26.72;100.00
11198;BME280;5655;48.744;9.162;2023-05-22T10:29:28;95874.97;;;27.12;100.00
11198;BME280;5655;48.744;9.162;2023-05-22T10:32:17;95885.16;;;27.31;100.00
11198;BME280;5655;48.744;9.162;2023-05-22T10:35:00;95886.03;;;26.97;100.00
11198;BME280;5655;48.744;9.162;2023-05-22T10:37:49;95868.50;;;27.40;100.00
11198;BME280;5655;48.744;9.162;2023-05-22T10:40:20;95873.06;;;27.43;100.00
11198;BME280;5655;48.744;9.162;2023-05-22T10:42:46;95869.94;;;27.30;100.00
11198;BME280;5655;48.744;9.162;2023-05-22T10:45:12;95865.75;;;27.40;100.00
11198;BME280;5655;48.744;9.162;2023-05-22T10:47:38;95868.50;;;27.40;100.00
11198;BME280;5655;48.744;9.162;2023-05-22T10:50:07;95865.06;;;27.71;100.00
11198;BME280;5655;48.744;9.162;2023-05-22T10:52:34;95868.66;;;28.14;100.00
11198;BME280;5655;48.744;9.162;2023-05-22T10:55:00;95859.97;;;27.59;100.00
11198;BME280;5655;48.744;9.162;2023-05-22T10:57:26;95856.50;;;27.64;100.00
11198;BME280;5655;48.744;9.162;2023-05-22T11:00:05;95858.34;;;28.09;100.00
11198;BME280;5655;48.744;9.162;2023-05-22T11:02:37;95856.03;;;28.33;100.00
11198;BME280;5655;48.744;9.162;2023-05-22T11:07:45;95851.75;;;28.75;100.00
11198;BME280;5655;48.744;9.162;2023-05-22T11:10:10;95848.81;;;28.95;100.00
11198;BME280;5655;48.744;9.162;2023-05-22T11:12:36;95840.03;;;28.85;100.00
11198;BME280;5655;48.744;9.162;2023-05-22T11:15:04;95842.75;;;28.80;100.00
11198;BME280;5655;48.744;9.162;2023-05-22T11:17:32;95840.59;;;29.06;100.00
11198;BME280;5655;48.744;9.162;2023-05-22T11:19:59;95836.09;;;29.03;100.00
11198;BME280;5655;48.744;9.162;2023-05-22T11:22:36;95829.81;;;29.03;100.00
11198;BME280;5655;48.744;9.162;2023-05-22T11:25:25;95842.56;;;29.00;100.00
11198;BME280;5655;48.744;9.162;2023-05-22T11:27:50;95830.09;;;29.21;100.00
11198;BME280;5655;48.744;9.162;2023-05-22T11:30:16;95823.56;;;29.19;100.00
11198;BME280;5655;48.744;9.162;2023-05-22T11:32:43;95825.66;;;29.46;100.00
11198;BME280;5655;48.744;9.162;2023-05-22T11:35:17;95824.13;;;29.45;100.00
11198;BME280;5655;48.744;9.162;2023-05-22T11:37:43;95831.53;;;28.89;100.00
11198;BME280;5655;48.744;9.162;2023-05-22T11:40:09;95819.63;;;29.37;100.00
11198;BME280;5655;48.744;9.162;2023-05-22T11:42:35;95818.09;;;29.36;100.00
11198;BME280;5655;48.744;9.162;2023-05-22T11:45:02;95815.09;;;30.06;100.00
11198;BME280;5655;48.744;9.162;2023-05-22T11:47:28;95811.59;;;29.39;100.00
11198;BME280;5655;48.744;9.162;2023-05-22T11:49:53;95812.84;;;29.71;100.00
11198;BME280;5655;48.744;9.162;2023-05-22T11:52:20;95803.31;;;29.66;100.00
11198;BME280;5655;48.744;9.162;2023-05-22T11:54:46;95801.03;;;30.09;100.00
11198;BME280;5655;48.744;9.162;2023-05-22T11:57:12;95804.59;;;29.93;100.00
11198;BME280;5655;48.744;9.162;2023-05-22T11:59:37;95799.53;;;29.86;100.00
11198;BME280;5655;48.744;9.162;2023-05-22T12:02:03;95799.31;;;30.06;100.00
11198;BME280;5655;48.744;9.162;2023-05-22T12:04:28;95804.78;;;30.17;100.00
11198;BME280;5655;48.744;9.162;2023-05-22T12:06:54;95807.22;;;30.54;100.00
11198;BME280;5655;48.744;9.162;2023-05-22T12:09:19;95795.25;;;30.13;100.00
11198;BME280;5655;48.744;9.162;2023-05-22T12:11:48;95800.72;;;30.35;100.00
11198;BME280;5655;48.744;9.162;2023-05-22T12:14:14;95801.06;;;29.98;100.00
11198;BME280;5655;48.744;9.162;2023-05-22T12:16:39;95798.81;;;29.80;100.00
11198;BME280;5655;48.744;9.162;2023-05-22T12:19:09;95791.78;;;29.96;100.00
11198;BME280;5655;48.744;9.162;2023-05-22T12:21:37;95790.41;;;30.47;100.00
11198;BME280;5655;48.744;9.162;2023-05-22T12:24:04;95790.59;;;30.66;100.00
11198;BME280;5655;48.744;9.162;2023-05-22T12:26:32;95780.56;;;30.62;100.00
11198;BME280;5655;48.744;9.162;2023-05-22T12:28:59;95790.28;;;30.80;100.00
11198;BME280;5655;48.744;9.162;2023-05-22T12:31:24;95790.75;;;30.84;100.00
11198;BME280;5655;48.744;9.162;2023-05-22T12:33:54;95791.53;;;31.26;100.00
11198;BME280;5655;48.744;9.162;2023-05-22T12:36:20;95786.88;;;30.98;100.00
11198;BME280;5655;48.744;9.162;2023-05-22T12:38:45;95799.44;;;31.11;100.00
11198;BME280;5655;48.744;9.162;2023-05-22T12:41:10;95798.09;;;31.58;100.00
11198;BME280;5655;48.744;9.162;2023-05-22T12:43:36;95804.47;;;31.42;100.00
11198;BME280;5655;48.744;9.162;2023-05-22T12:46:01;95810.03;;;31.01;100.00
11198;BME280;5655;48.744;9.162;2023-05-22T12:48:26;95810.59;;;30.83;100.00
11198;BME280;5655;48.744;9.162;2023-05-22T12:50:52;95809.44;;;30.67;100.00
11198;BME280;5655;48.744;9.162;2023-05-22T12:53:17;95814.81;;;31.00;100.00
11198;BME280;5655;48.744;9.162;2023-05-22T12:55:43;95805.63;;;31.22;100.00
11198;BME280;5655;48.744;9.162;2023-05-22T12:58:08;95804.22;;;31.04;100.00
11198;BME280;5655;48.744;9.162;2023-05-22T13:00:34;95806.22;;;31.45;99.84
11198;BME280;5655;48.744;9.162;2023-05-22T13:02:59;95800.63;;;31.56;96.07
11198;BME280;5655;48.744;9.162;2023-05-22T13:05:25;95800.88;;;31.58;88.70
11198;BME280;5655;48.744;9.162;2023-05-22T13:07:50;95793.19;;;32.00;85.99